createdAt,value
2023-03-08T00:00:18.900Z,4.00
2023-03-08T00:02:46.607Z,4.00
2023-03-08T00:05:14.356Z,4.00
2023-03-08T00:07:42.059Z,4.10
2023-03-08T00:10:11.540Z,4.00
2023-03-08T00:12:39.253Z,3.80
2023-03-08T00:15:09.142Z,3.70
2023-03-08T00:17:37.901Z,3.80
2023-03-08T00:20:06.918Z,4.00
2023-03-08T00:22:36.697Z,4.10
2023-03-08T00:25:04.796Z,3.90
2023-03-08T00:27:33.623Z,3.80
2023-03-08T00:30:01.332Z,3.80
2023-03-08T00:32:30.526Z,3.90
2023-03-08T00:34:58.376Z,3.70
2023-03-08T00:37:26.181Z,3.60
2023-03-08T00:39:54.904Z,3.90
2023-03-08T00:42:23.401Z,4.00
2023-03-08T00:44:51.294Z,4.00
2023-03-08T00:47:19.002Z,4.10
2023-03-08T00:49:48.067Z,4.20
2023-03-08T00:52:15.805Z,4.30
2023-03-08T00:54:43.777Z,4.10
2023-03-08T00:57:11.515Z,4.10
2023-03-08T00:59:39.427Z,4.20
2023-03-08T01:02:07.111Z,4.00
2023-03-08T01:04:35.013Z,4.00
2023-03-08T01:07:04.104Z,4.20
2023-03-08T01:09:31.866Z,4.20
2023-03-08T01:11:59.629Z,4.30
2023-03-08T01:14:27.514Z,4.10
2023-03-08T01:16:55.209Z,4.00
2023-03-08T01:19:22.922Z,4.00
2023-03-08T01:21:50.643Z,3.90
2023-03-08T01:24:19.684Z,3.90
2023-03-08T01:26:47.392Z,3.90
2023-03-08T01:29:15.096Z,3.90
2023-03-08T01:31:42.811Z,3.90
2023-03-08T01:34:10.871Z,4.00
2023-03-08T01:36:38.588Z,4.00
2023-03-08T01:39:06.299Z,4.10
2023-03-08T01:41:35.431Z,4.20
2023-03-08T01:44:03.254Z,4.20
2023-03-08T01:46:31.767Z,4.20
2023-03-08T01:49:06.143Z,4.30
2023-03-08T01:51:38.532Z,4.40
2023-03-08T01:54:10.504Z,4.50
2023-03-08T01:56:41.626Z,4.50
2023-03-08T01:59:09.757Z,4.40
2023-03-08T02:01:37.719Z,4.30
2023-03-08T02:04:06.278Z,4.00
2023-03-08T02:06:34.589Z,4.10
2023-03-08T02:09:05.465Z,4.00
2023-03-08T02:11:34.297Z,4.00
2023-03-08T02:14:03.622Z,4.10
2023-03-08T02:16:31.342Z,4.30
2023-03-08T02:19:00.935Z,4.20
2023-03-08T02:21:30.462Z,4.00
2023-03-08T02:24:06.150Z,3.90
2023-03-08T02:26:34.832Z,4.10
2023-03-08T02:29:02.628Z,4.00
2023-03-08T02:31:30.301Z,4.10
2023-03-08T02:33:58.009Z,4.20
2023-03-08T02:36:25.744Z,4.20
2023-03-08T02:38:53.441Z,4.30
2023-03-08T02:41:22.789Z,4.30
2023-03-08T02:43:50.507Z,4.20
2023-03-08T02:46:18.254Z,4.20
2023-03-08T02:48:46.786Z,4.20
2023-03-08T02:51:14.734Z,4.20
2023-03-08T02:53:42.430Z,4.20
2023-03-08T02:56:10.139Z,4.30
2023-03-08T02:58:39.230Z,4.40
2023-03-08T03:01:12.463Z,4.50
2023-03-08T03:03:40.475Z,4.40
2023-03-08T03:06:15.451Z,4.50
2023-03-08T03:08:43.260Z,4.50
2023-03-08T03:11:14.625Z,4.50
2023-03-08T03:13:43.682Z,4.50
2023-03-08T03:16:14.111Z,4.50
2023-03-08T03:18:41.887Z,4.60
2023-03-08T03:21:12.267Z,4.50
2023-03-08T03:23:40.151Z,4.50
2023-03-08T03:26:09.595Z,4.70
2023-03-08T03:28:37.587Z,4.80
2023-03-08T03:31:10.529Z,4.80
2023-03-08T03:33:38.387Z,4.70
2023-03-08T03:36:06.858Z,4.60
2023-03-08T03:38:34.632Z,4.50
2023-03-08T03:41:03.344Z,4.60
2023-03-08T03:43:31.532Z,4.50
2023-03-08T03:46:00.359Z,4.40
2023-03-08T03:48:29.505Z,4.30
2023-03-08T03:50:58.256Z,4.30
2023-03-08T03:53:26.597Z,4.40
2023-03-08T03:55:54.314Z,4.40
2023-03-08T03:58:22.211Z,4.50
2023-03-08T04:00:49.883Z,4.50
2023-03-08T04:03:17.678Z,4.60
2023-03-08T04:05:46.737Z,4.40
2023-03-08T04:08:14.549Z,4.60
2023-03-08T04:10:42.272Z,4.60
2023-03-08T04:13:11.645Z,4.70
2023-03-08T04:15:39.377Z,4.70
2023-03-08T04:18:07.113Z,4.70
2023-03-08T04:20:34.806Z,4.50
2023-03-08T04:23:03.860Z,4.10
2023-03-08T04:25:31.591Z,3.90
2023-03-08T04:27:59.298Z,3.90
2023-03-08T04:30:27.025Z,3.90
2023-03-08T04:32:54.778Z,3.90
2023-03-08T04:35:22.753Z,3.90
2023-03-08T04:37:50.449Z,4.00
2023-03-08T04:40:19.719Z,4.20
2023-03-08T04:42:47.570Z,4.20
2023-03-08T04:45:16.213Z,4.30
2023-03-08T04:47:43.935Z,4.30
2023-03-08T04:50:12.649Z,4.20
2023-03-08T04:52:40.811Z,4.30
2023-03-08T04:55:09.082Z,4.40
2023-03-08T04:57:38.183Z,4.30
2023-03-08T05:00:06.596Z,4.20
2023-03-08T05:02:34.332Z,4.30
2023-03-08T05:05:02.085Z,4.20
2023-03-08T05:07:29.791Z,4.10
2023-03-08T05:09:57.465Z,4.10
2023-03-08T05:12:25.159Z,4.20
2023-03-08T05:14:54.276Z,4.20
2023-03-08T05:17:22.038Z,4.30
2023-03-08T05:19:50.328Z,4.30
2023-03-08T05:22:18.146Z,4.20
2023-03-08T05:24:46.384Z,4.20
2023-03-08T05:27:14.100Z,4.00
2023-03-08T05:29:41.963Z,3.90
2023-03-08T05:32:13.512Z,3.90
2023-03-08T05:34:41.301Z,3.60
2023-03-08T05:37:09.041Z,3.50
2023-03-08T05:39:36.864Z,3.40
2023-03-08T05:42:04.748Z,3.20
2023-03-08T05:44:32.483Z,3.30
2023-03-08T05:47:00.317Z,3.30
2023-03-08T05:49:29.556Z,3.40
2023-03-08T05:51:57.517Z,3.50
2023-03-08T05:54:25.244Z,3.40
2023-03-08T05:56:52.921Z,3.40
2023-03-08T05:59:20.653Z,3.40
2023-03-08T06:01:48.381Z,3.40
2023-03-08T06:04:16.212Z,3.40
2023-03-08T06:06:45.201Z,3.30
2023-03-08T06:09:12.900Z,3.30
2023-03-08T06:11:40.591Z,3.20
2023-03-08T06:14:08.570Z,3.20
2023-03-08T06:16:36.362Z,3.20
2023-03-08T06:19:04.326Z,3.10
2023-03-08T06:21:32.138Z,3.00
2023-03-08T06:24:01.156Z,3.10
2023-03-08T06:26:28.946Z,3.00
2023-03-08T06:28:56.666Z,3.00
2023-03-08T06:31:24.421Z,3.20
2023-03-08T06:33:52.185Z,3.20
2023-03-08T06:36:21.434Z,3.20
2023-03-08T06:38:49.870Z,3.10
2023-03-08T06:41:20.417Z,3.20
2023-03-08T06:43:48.517Z,3.40
2023-03-08T06:46:18.828Z,3.40
2023-03-08T06:48:47.419Z,3.50
2023-03-08T06:51:15.741Z,3.50
2023-03-08T06:53:43.449Z,3.70
2023-03-08T06:56:13.882Z,3.70
2023-03-08T06:58:43.951Z,3.70
2023-03-08T07:01:13.663Z,3.70
2023-03-08T07:03:41.503Z,3.80
2023-03-08T07:06:11.027Z,3.80
2023-03-08T07:08:40.112Z,3.80
2023-03-08T07:11:09.674Z,3.90
2023-03-08T07:13:37.694Z,4.00
2023-03-08T07:16:12.025Z,4.10
2023-03-08T07:18:39.894Z,4.10
2023-03-08T07:21:08.161Z,4.10
2023-03-08T07:23:35.880Z,4.20
2023-03-08T07:26:05.767Z,4.20
2023-03-08T07:28:33.540Z,4.30
2023-03-08T07:31:01.224Z,4.30
2023-03-08T07:33:30.763Z,4.30
2023-03-08T07:36:01.894Z,4.30
2023-03-08T07:38:30.091Z,4.30
2023-03-08T07:40:58.360Z,4.30
2023-03-08T07:43:26.163Z,4.20
2023-03-08T07:45:53.871Z,4.20
2023-03-08T07:48:21.603Z,4.30
2023-03-08T07:50:50.618Z,4.50
2023-03-08T07:53:18.294Z,4.60
2023-03-08T07:55:46.110Z,4.60
2023-03-08T07:58:14.136Z,4.60
2023-03-08T08:00:41.842Z,4.70
2023-03-08T08:03:09.828Z,4.70
2023-03-08T08:05:37.734Z,4.70
2023-03-08T08:08:06.855Z,4.70
2023-03-08T08:10:34.626Z,4.70
2023-03-08T08:13:02.458Z,4.60
2023-03-08T08:15:30.926Z,4.60
2023-03-08T08:17:58.664Z,4.60
2023-03-08T08:20:27.014Z,4.60
2023-03-08T08:22:55.103Z,4.70
2023-03-08T08:25:24.216Z,4.80
2023-03-08T08:27:52.308Z,4.80
2023-03-08T08:30:20.441Z,4.70
2023-03-08T08:32:48.278Z,4.70
2023-03-08T08:35:16.032Z,4.70
2023-03-08T08:37:43.792Z,4.80
2023-03-08T08:40:12.930Z,4.70
2023-03-08T08:42:41.955Z,4.60
2023-03-08T08:45:10.568Z,4.50
2023-03-08T08:47:38.299Z,4.50
2023-03-08T08:50:06.551Z,4.40
2023-03-08T08:52:34.621Z,4.50
2023-03-08T08:55:02.647Z,4.60
2023-03-08T08:57:30.412Z,4.70
2023-03-08T08:59:59.533Z,4.60
2023-03-08T09:02:27.326Z,4.70
2023-03-08T09:04:55.375Z,4.90
2023-03-08T09:07:23.178Z,5.00
2023-03-08T09:09:50.901Z,5.00
2023-03-08T09:12:19.640Z,5.10
2023-03-08T09:14:47.387Z,5.00
2023-03-08T09:17:16.429Z,5.10
2023-03-08T09:19:44.140Z,5.00
2023-03-08T09:22:12.445Z,5.00
2023-03-08T09:24:40.136Z,5.00
2023-03-08T09:27:08.316Z,4.90
2023-03-08T09:29:37.898Z,4.90
2023-03-08T09:32:06.464Z,4.80
2023-03-08T09:34:35.709Z,4.90
2023-03-08T09:37:03.755Z,5.20
2023-03-08T09:39:31.491Z,5.30
2023-03-08T09:42:00.797Z,5.10
2023-03-08T09:45:02.977Z,5.10
2023-03-08T09:47:39.568Z,5.00
2023-03-08T09:50:26.212Z,5.10
2023-03-08T09:53:00.148Z,5.30
2023-03-08T09:55:30.844Z,5.10
2023-03-08T09:58:02.670Z,5.20
2023-03-08T10:00:33.207Z,5.20
2023-03-08T10:03:22.874Z,5.00
2023-03-08T10:05:58.133Z,5.00
2023-03-08T10:08:32.993Z,5.00
2023-03-08T10:11:03.532Z,4.90
2023-03-08T10:13:34.108Z,5.10
2023-03-08T10:16:12.084Z,5.10
2023-03-08T10:18:45.577Z,5.30
2023-03-08T10:21:18.160Z,5.20
2023-03-08T10:23:48.585Z,5.30
2023-03-08T10:26:18.491Z,5.50
2023-03-08T10:28:46.187Z,5.50
2023-03-08T10:31:23.692Z,5.40
2023-03-08T10:33:58.107Z,5.60
2023-03-08T10:36:27.428Z,5.90
2023-03-08T10:39:03.449Z,5.90
2023-03-08T10:41:37.386Z,6.00
2023-03-08T10:44:05.246Z,5.80
2023-03-08T10:46:33.791Z,5.90
2023-03-08T10:49:10.243Z,6.10
2023-03-08T10:51:39.378Z,5.90
2023-03-08T10:54:12.297Z,6.00
2023-03-08T10:56:44.678Z,6.00
2023-03-08T10:59:28.044Z,6.00
2023-03-08T11:01:59.073Z,5.80
2023-03-08T11:04:29.031Z,5.90
2023-03-08T11:06:58.796Z,6.10
2023-03-08T11:09:28.653Z,6.30
2023-03-08T11:11:57.422Z,6.30
2023-03-08T11:14:26.276Z,6.30
2023-03-08T11:17:03.040Z,6.30
2023-03-08T11:19:40.334Z,6.30
2023-03-08T11:22:21.978Z,6.40
2023-03-08T11:25:06.918Z,6.30
2023-03-08T11:27:49.399Z,6.30
2023-03-08T11:30:27.999Z,6.00
2023-03-08T11:33:20.591Z,6.00
2023-03-08T11:35:54.006Z,6.00
2023-03-08T11:38:26.485Z,5.90
2023-03-08T11:41:04.282Z,5.90
2023-03-08T11:43:46.612Z,5.80
2023-03-08T11:46:20.766Z,5.90
2023-03-08T11:49:25.654Z,5.90
2023-03-08T11:52:01.878Z,6.00
2023-03-08T11:54:43.063Z,5.80
2023-03-08T11:57:13.083Z,5.60
2023-03-08T11:59:45.548Z,5.60
2023-03-08T12:02:19.454Z,5.60
2023-03-08T12:04:54.735Z,5.50
2023-03-08T12:07:28.459Z,5.50
2023-03-08T12:10:04.059Z,5.60
2023-03-08T12:12:35.891Z,5.80
2023-03-08T12:15:12.440Z,5.70
2023-03-08T12:17:45.187Z,5.80
2023-03-08T12:20:15.687Z,5.70
2023-03-08T12:22:47.268Z,5.80
2023-03-08T12:25:25.186Z,5.80
2023-03-08T12:27:58.976Z,5.80
2023-03-08T12:30:37.535Z,5.80
2023-03-08T12:33:07.420Z,5.70
2023-03-08T12:35:40.415Z,5.60
2023-03-08T12:38:32.977Z,5.70
2023-03-08T12:41:03.014Z,5.80
2023-03-08T12:43:33.193Z,5.90
2023-03-08T12:46:04.945Z,5.90
2023-03-08T12:48:35.538Z,5.90
2023-03-08T12:51:09.681Z,5.70
2023-03-08T12:53:41.579Z,5.70
2023-03-08T12:56:24.829Z,5.60
2023-03-08T12:58:55.594Z,5.50
2023-03-08T13:01:33.658Z,5.40
2023-03-08T13:04:01.515Z,5.30
2023-03-08T13:06:50.731Z,5.60
2023-03-08T13:09:23.776Z,5.60
2023-03-08T13:12:01.760Z,5.60
2023-03-08T13:14:40.560Z,5.70
2023-03-08T13:17:37.008Z,5.60
2023-03-08T13:20:15.355Z,5.70
2023-03-08T13:22:54.947Z,5.60
2023-03-08T13:25:36.922Z,5.50
2023-03-08T13:28:09.919Z,5.60
2023-03-08T13:30:39.622Z,5.60
2023-03-08T13:33:13.484Z,5.40
2023-03-08T13:35:41.377Z,5.40
2023-03-08T13:38:20.120Z,5.40
2023-03-08T13:40:51.894Z,5.40
2023-03-08T13:43:23.244Z,5.30
2023-03-08T13:45:53.786Z,5.20
2023-03-08T13:48:23.720Z,5.30
2023-03-08T13:50:53.165Z,5.40
2023-03-08T13:53:23.147Z,5.40
2023-03-08T13:55:53.183Z,5.40
2023-03-08T13:58:33.081Z,5.50
2023-03-08T14:01:02.889Z,5.70
2023-03-08T14:03:32.675Z,5.80
2023-03-08T14:06:00.581Z,5.80
2023-03-08T14:08:29.442Z,5.60
2023-03-08T14:11:00.725Z,5.60
2023-03-08T14:13:33.396Z,5.50
2023-03-08T14:16:03.909Z,5.50
2023-03-08T14:18:34.917Z,5.60
2023-03-08T14:21:08.678Z,5.60
2023-03-08T14:23:41.223Z,5.50
2023-03-08T14:26:28.575Z,5.60
2023-03-08T14:29:18.274Z,5.70
2023-03-08T14:32:01.709Z,5.80
2023-03-08T14:34:33.812Z,5.80
2023-03-08T14:37:05.324Z,5.70
2023-03-08T14:39:35.250Z,5.80
2023-03-08T14:42:19.619Z,5.70
2023-03-08T14:44:53.795Z,5.70
2023-03-08T14:47:24.622Z,5.60
2023-03-08T14:50:02.705Z,5.40
2023-03-08T14:52:32.285Z,5.40
2023-03-08T14:55:00.253Z,5.40
2023-03-08T14:57:30.376Z,5.40
2023-03-08T15:00:08.012Z,5.40
2023-03-08T15:02:37.551Z,5.30
2023-03-08T15:05:07.860Z,5.30
2023-03-08T15:07:37.798Z,5.10
2023-03-08T15:10:07.853Z,5.10
2023-03-08T15:12:35.680Z,5.20
2023-03-08T15:15:12.980Z,5.20
2023-03-08T15:17:40.715Z,5.30
2023-03-08T15:20:10.370Z,5.50
2023-03-08T15:22:42.393Z,5.40
2023-03-08T15:25:14.936Z,5.50
2023-03-08T15:27:42.646Z,5.40
2023-03-08T15:30:17.732Z,5.40
2023-03-08T15:32:45.790Z,5.40
2023-03-08T15:35:13.647Z,5.50
2023-03-08T15:37:41.712Z,5.40
2023-03-08T15:40:14.066Z,5.40
2023-03-08T15:42:41.977Z,5.40
2023-03-08T15:45:10.856Z,5.40
2023-03-08T15:47:39.980Z,5.40
2023-03-08T15:50:15.602Z,5.40
2023-03-08T15:52:43.865Z,5.20
2023-03-08T15:55:13.053Z,5.20
2023-03-08T15:57:41.535Z,5.20
2023-03-08T16:00:12.455Z,5.10
2023-03-08T16:02:42.004Z,5.00
2023-03-08T16:05:12.082Z,5.20
2023-03-08T16:07:40.142Z,5.10
2023-03-08T16:10:10.163Z,4.90
2023-03-08T16:12:37.941Z,5.00
2023-03-08T16:15:06.853Z,5.10
2023-03-08T16:17:34.773Z,5.00
2023-03-08T16:20:06.066Z,5.00
2023-03-08T16:22:34.260Z,5.00
2023-03-08T16:25:02.043Z,5.10
2023-03-08T16:27:30.878Z,5.00
2023-03-08T16:29:58.652Z,5.10
2023-03-08T16:32:27.987Z,5.00
2023-03-08T16:34:57.863Z,5.10
2023-03-08T16:37:27.792Z,5.00
2023-03-08T16:39:57.458Z,5.00
2023-03-08T16:42:25.479Z,5.00
2023-03-08T16:44:55.770Z,5.00
2023-03-08T16:47:25.223Z,5.20
2023-03-08T16:49:53.009Z,5.20
2023-03-08T16:52:20.732Z,5.20
2023-03-08T16:54:49.795Z,5.00
2023-03-08T16:57:20.065Z,5.00
2023-03-08T16:59:48.319Z,4.90
2023-03-08T17:02:17.520Z,4.80
2023-03-08T17:04:45.640Z,5.00
2023-03-08T17:07:13.756Z,5.00
2023-03-08T17:09:41.845Z,4.90
2023-03-08T17:12:11.464Z,5.00
2023-03-08T17:14:39.874Z,5.10
2023-03-08T17:17:10.240Z,5.00
2023-03-08T17:19:40.779Z,4.80
2023-03-08T17:22:09.085Z,4.80
2023-03-08T17:24:37.038Z,4.70
2023-03-08T17:27:05.083Z,4.80
2023-03-08T17:29:34.189Z,4.70
2023-03-08T17:32:02.002Z,4.70
2023-03-08T17:34:29.720Z,4.70
2023-03-08T17:36:57.742Z,4.70
2023-03-08T17:39:25.510Z,4.70
2023-03-08T17:41:53.266Z,4.80
2023-03-08T17:44:20.956Z,4.90
2023-03-08T17:46:50.332Z,5.00
2023-03-08T17:49:23.120Z,5.00
2023-03-08T17:51:50.979Z,5.00
2023-03-08T17:54:19.521Z,4.90
2023-03-08T17:56:47.376Z,4.90
2023-03-08T17:59:17.091Z,4.90
2023-03-08T18:01:45.102Z,4.80
2023-03-08T18:04:14.208Z,4.90
2023-03-08T18:06:43.594Z,4.80
2023-03-08T18:09:12.909Z,4.70
2023-03-08T18:11:41.192Z,4.80
2023-03-08T18:14:11.049Z,4.80
2023-03-08T18:16:39.478Z,4.70
2023-03-08T18:19:08.055Z,4.50
2023-03-08T18:21:40.546Z,4.50
2023-03-08T18:24:10.173Z,4.40
2023-03-08T18:26:37.897Z,4.50
2023-03-08T18:29:05.641Z,4.60
2023-03-08T18:31:35.064Z,4.50
2023-03-08T18:34:02.969Z,4.60
2023-03-08T18:36:30.875Z,4.70
2023-03-08T18:39:00.127Z,4.50
2023-03-08T18:41:29.467Z,4.60
2023-03-08T18:43:59.288Z,4.70
2023-03-08T18:46:29.384Z,4.80
2023-03-08T18:48:57.408Z,4.90
2023-03-08T18:51:25.580Z,4.90
2023-03-08T18:53:54.841Z,4.80
2023-03-08T18:56:25.670Z,4.90
2023-03-08T18:58:53.642Z,4.80
2023-03-08T19:01:21.669Z,4.80
2023-03-08T19:03:50.031Z,4.70
2023-03-08T19:06:19.405Z,4.70
2023-03-08T19:08:47.152Z,4.80
2023-03-08T19:11:17.264Z,4.90
2023-03-08T19:13:46.948Z,4.90
2023-03-08T19:16:19.810Z,4.70
2023-03-08T19:18:48.451Z,4.80
2023-03-08T19:21:17.782Z,4.70
2023-03-08T19:23:45.678Z,4.90
2023-03-08T19:26:32.025Z,4.80
2023-03-08T19:29:02.003Z,4.80
2023-03-08T19:31:30.212Z,4.80
2023-03-08T19:33:58.117Z,4.80
2023-03-08T19:36:26.089Z,4.90
2023-03-08T19:38:55.349Z,4.90
2023-03-08T19:41:23.159Z,4.90
2023-03-08T19:43:50.962Z,4.90
2023-03-08T19:46:19.999Z,4.80
2023-03-08T19:48:47.863Z,4.70
2023-03-08T19:51:15.741Z,4.80
2023-03-08T19:53:44.563Z,5.00
2023-03-08T19:56:15.818Z,5.00
2023-03-08T19:58:43.716Z,4.80
2023-03-08T20:01:13.612Z,4.90
2023-03-08T20:03:42.987Z,4.90
2023-03-08T20:06:11.169Z,5.00
2023-03-08T20:08:40.399Z,5.00
2023-03-08T20:11:08.112Z,4.80
2023-03-08T20:13:35.858Z,4.90
2023-03-08T20:16:03.681Z,4.90
2023-03-08T20:18:32.435Z,4.70
2023-03-08T20:21:03.040Z,4.70
2023-03-08T20:23:32.166Z,4.60
2023-03-08T20:26:00.242Z,4.70
2023-03-08T20:28:28.208Z,4.80
2023-03-08T20:30:56.285Z,4.70
2023-03-08T20:33:24.127Z,4.60
2023-03-08T20:35:58.755Z,4.50
2023-03-08T20:38:28.120Z,4.50
2023-03-08T20:41:00.751Z,4.50
2023-03-08T20:43:29.093Z,4.60
2023-03-08T20:45:57.394Z,4.50
2023-03-08T20:48:25.406Z,4.50
2023-03-08T20:50:59.630Z,4.50
2023-03-08T20:53:29.468Z,4.70
2023-03-08T20:55:57.632Z,4.70
2023-03-08T20:58:26.324Z,4.70
2023-03-08T21:00:54.013Z,4.50
2023-03-08T21:03:22.737Z,4.70
2023-03-08T21:05:50.552Z,4.80
2023-03-08T21:08:18.396Z,4.80
2023-03-08T21:10:49.957Z,4.70
2023-03-08T21:13:17.732Z,4.70
2023-03-08T21:15:46.958Z,4.70
2023-03-08T21:18:14.749Z,4.50
2023-03-08T21:20:42.450Z,4.60
2023-03-08T21:23:19.338Z,4.60
2023-03-08T21:25:48.551Z,4.40
2023-03-08T21:28:16.409Z,4.40
2023-03-08T21:30:46.504Z,4.50
2023-03-08T21:33:14.265Z,4.30
2023-03-08T21:35:43.004Z,4.60
2023-03-08T21:38:11.238Z,4.40
2023-03-08T21:40:42.162Z,4.40
2023-03-08T21:43:12.357Z,4.20
2023-03-08T21:45:41.260Z,4.30
2023-03-08T21:48:09.912Z,4.30
2023-03-08T21:50:39.715Z,4.40
2023-03-08T21:53:07.572Z,4.40
2023-03-08T21:55:39.191Z,4.50
2023-03-08T21:58:07.190Z,4.50
2023-03-08T22:00:36.573Z,4.50
2023-03-08T22:03:04.689Z,4.40
2023-03-08T22:05:33.107Z,4.30
2023-03-08T22:08:00.862Z,4.50
2023-03-08T22:10:29.200Z,4.50
2023-03-08T22:12:57.018Z,4.30
2023-03-08T22:15:24.798Z,4.20
2023-03-08T22:17:54.367Z,4.20
2023-03-08T22:20:23.356Z,4.30
2023-03-08T22:22:51.075Z,4.20
2023-03-08T22:25:18.852Z,4.30
2023-03-08T22:27:46.567Z,4.30
2023-03-08T22:30:14.885Z,4.20
2023-03-08T22:32:43.288Z,4.30
2023-03-08T22:35:13.675Z,4.30
2023-03-08T22:37:42.018Z,4.20
2023-03-08T22:40:12.969Z,4.20
2023-03-08T22:42:40.870Z,4.30
2023-03-08T22:45:10.078Z,4.30
2023-03-08T22:47:37.973Z,4.50
2023-03-08T22:50:06.804Z,4.50
2023-03-08T22:52:35.859Z,4.20
2023-03-08T22:55:04.523Z,4.10
2023-03-08T22:57:32.576Z,4.20
2023-03-08T23:00:00.480Z,4.20
2023-03-08T23:02:28.448Z,4.20
2023-03-08T23:04:58.180Z,4.40
2023-03-08T23:07:25.996Z,4.30
2023-03-08T23:09:55.049Z,4.20
2023-03-08T23:12:22.776Z,4.30
2023-03-08T23:14:53.868Z,4.30
2023-03-08T23:17:21.638Z,4.40
2023-03-08T23:19:50.685Z,4.50
2023-03-08T23:22:19.031Z,4.40
2023-03-08T23:24:46.837Z,4.30
2023-03-08T23:27:15.916Z,4.20
2023-03-08T23:29:43.678Z,4.20
2023-03-08T23:32:11.541Z,4.20
2023-03-08T23:34:39.540Z,4.10
2023-03-08T23:37:07.251Z,4.20
2023-03-08T23:39:35.332Z,4.20
2023-03-08T23:42:03.082Z,4.10
2023-03-08T23:44:32.395Z,4.20
2023-03-08T23:47:00.107Z,4.20
2023-03-08T23:49:27.872Z,4.30
2023-03-08T23:51:55.586Z,4.30
2023-03-08T23:54:23.390Z,4.30
2023-03-08T23:56:51.094Z,4.30
2023-03-08T23:59:20.542Z,4.20
